createdAt,value
2022-12-03T00:00:13.497Z,0.19
2022-12-03T00:01:19.796Z,0.23
2022-12-03T00:02:21.977Z,0.26
2022-12-03T00:03:27.051Z,0.28
2022-12-03T00:04:29.342Z,0.21
2022-12-03T00:05:34.399Z,0.22
2022-12-03T00:06:36.465Z,0.24
2022-12-03T00:07:42.752Z,0.20
2022-12-03T00:08:44.791Z,0.25
2022-12-03T00:09:49.470Z,0.26
2022-12-03T00:10:51.713Z,0.24
2022-12-03T00:11:56.484Z,0.22
2022-12-03T00:13:01.222Z,0.21
2022-12-03T00:14:07.461Z,0.18
2022-12-03T00:15:11.178Z,0.29
2022-12-03T00:16:17.705Z,0.27
2022-12-03T00:17:19.860Z,0.30
2022-12-03T00:18:24.559Z,0.24
2022-12-03T00:19:26.583Z,0.18
2022-12-03T00:20:31.164Z,0.18
2022-12-03T00:21:33.244Z,0.30
2022-12-03T00:22:37.915Z,0.25
2022-12-03T00:23:42.330Z,0.21
2022-12-03T00:24:47.212Z,0.22
2022-12-03T00:25:51.828Z,0.23
2022-12-03T00:26:53.897Z,0.23
2022-12-03T00:27:58.465Z,0.33
2022-12-03T00:29:03.487Z,0.30
2022-12-03T00:30:11.388Z,0.26
2022-12-03T00:31:13.411Z,0.28
2022-12-03T00:32:18.055Z,0.26
2022-12-03T00:33:20.451Z,0.30
2022-12-03T00:34:25.158Z,0.30
2022-12-03T00:35:27.151Z,0.31
2022-12-03T00:36:31.769Z,0.26
2022-12-03T00:37:35.274Z,0.31
2022-12-03T00:38:40.000Z,0.29
2022-12-03T00:39:42.195Z,0.27
2022-12-03T00:40:46.963Z,0.25
2022-12-03T00:41:48.985Z,0.23
2022-12-03T00:42:53.642Z,0.27
2022-12-03T09:03:21.627Z,0.00
2022-12-03T09:04:27.705Z,0.04
2022-12-03T09:05:35.276Z,-0.08
2022-12-03T09:06:37.365Z,-0.08
2022-12-03T09:07:42.084Z,-0.07
2022-12-03T09:08:44.664Z,-0.11
2022-12-03T09:09:49.389Z,-0.04
2022-12-03T09:10:51.638Z,-0.06
2022-12-03T09:11:59.510Z,-0.09
2022-12-03T09:13:01.658Z,-0.01
2022-12-03T09:14:06.889Z,0.01
2022-12-03T09:15:13.048Z,-0.07
2022-12-03T09:16:15.253Z,-0.02
2022-12-03T09:17:20.119Z,-0.08
2022-12-03T09:18:25.006Z,0.02
2022-12-03T09:19:31.356Z,-0.06
2022-12-03T09:20:33.540Z,-0.06
2022-12-03T09:21:38.427Z,0.03
2022-12-03T09:22:43.329Z,0.02
2022-12-03T09:23:45.402Z,0.07
2022-12-03T09:24:50.150Z,0.10
2022-12-03T09:25:52.375Z,0.12
2022-12-03T09:26:57.280Z,0.03
2022-12-03T09:27:59.583Z,0.02
2022-12-03T09:29:08.918Z,0.03
2022-12-03T09:30:14.530Z,0.00
2022-12-03T09:31:19.924Z,0.08
2022-12-03T09:32:22.251Z,0.02
2022-12-03T09:33:31.261Z,0.06
2022-12-03T09:34:35.996Z,0.08
2022-12-03T09:35:38.159Z,0.14
2022-12-03T09:36:43.584Z,0.17
2022-12-03T09:37:45.705Z,0.17
2022-12-03T09:38:50.432Z,0.29
2022-12-03T09:39:55.444Z,0.35
2022-12-03T09:40:57.539Z,0.37
2022-12-03T09:42:04.870Z,0.31
2022-12-03T09:43:07.112Z,0.34
2022-12-03T09:44:17.686Z,0.34
2022-12-03T09:45:20.553Z,0.35
2022-12-03T09:46:25.785Z,0.39
2022-12-03T09:47:32.678Z,0.39
2022-12-03T09:48:37.770Z,0.50
2022-12-03T09:49:43.553Z,0.51
2022-12-03T09:50:48.978Z,0.50
2022-12-03T09:51:54.056Z,0.54
2022-12-03T09:53:04.980Z,0.51
2022-12-03T09:54:10.085Z,0.48
2022-12-03T09:55:17.000Z,0.54
2022-12-03T09:56:24.864Z,0.59
2022-12-03T09:57:29.506Z,0.59
2022-12-03T09:58:35.016Z,0.73
2022-12-03T10:00:51.468Z,0.66
2022-12-03T10:01:57.146Z,0.71
2022-12-03T10:05:56.607Z,0.53
2022-12-03T10:09:04.624Z,0.56
2022-12-03T10:09:08.319Z,0.61
2022-12-03T10:10:18.396Z,0.50
2022-12-03T10:11:29.576Z,0.42
2022-12-03T10:12:45.035Z,0.52
2022-12-03T10:13:58.230Z,0.55
2022-12-03T10:24:45.205Z,0.35
2022-12-03T10:25:53.027Z,0.31
2022-12-03T10:27:02.346Z,0.32
2022-12-03T10:28:05.462Z,0.37
2022-12-03T10:29:16.026Z,0.38
2022-12-03T10:30:23.717Z,0.36
2022-12-03T10:31:38.771Z,0.41
2022-12-03T10:32:48.820Z,0.40
2022-12-03T10:34:04.143Z,0.46
2022-12-03T10:35:12.401Z,0.39
2022-12-03T10:36:23.435Z,0.35
2022-12-03T10:37:28.285Z,0.31
2022-12-03T10:38:30.457Z,0.33
2022-12-03T10:39:56.658Z,0.28
2022-12-03T10:41:03.140Z,0.37
2022-12-03T10:42:18.370Z,0.40
2022-12-03T10:43:29.456Z,0.39
2022-12-03T10:44:31.837Z,0.37
2022-12-03T10:45:36.721Z,0.41
2022-12-03T10:46:41.808Z,0.45
2022-12-03T10:48:06.521Z,0.46
2022-12-03T10:49:13.143Z,0.52
2022-12-03T10:50:18.108Z,0.58
2022-12-03T10:51:23.844Z,0.66
2022-12-03T10:52:26.331Z,0.59
2022-12-03T10:53:33.084Z,0.61
2022-12-03T10:54:38.717Z,0.64
2022-12-03T10:55:43.530Z,0.59
2022-12-03T10:56:49.784Z,0.56
2022-12-03T10:57:52.548Z,0.57
2022-12-03T10:58:58.211Z,0.62
2022-12-03T11:00:00.491Z,0.66
2022-12-03T11:01:13.531Z,0.63
2022-12-03T11:02:22.834Z,0.66
2022-12-03T11:03:32.444Z,0.73
2022-12-03T11:04:36.914Z,0.74
2022-12-03T11:05:41.786Z,0.70
2022-12-03T11:06:46.720Z,0.75
2022-12-03T11:07:49.200Z,0.80
2022-12-03T11:09:01.388Z,0.82
2022-12-03T11:10:15.310Z,0.69
2022-12-03T11:11:21.892Z,0.63
2022-12-03T11:12:28.741Z,0.63
2022-12-03T11:13:50.298Z,0.74
2022-12-03T11:15:12.170Z,0.81
2022-12-03T11:16:15.120Z,0.77
2022-12-03T11:17:51.693Z,0.81
2022-12-03T11:19:03.544Z,0.78
2022-12-03T11:20:18.084Z,0.86
2022-12-03T11:21:26.051Z,0.84
2022-12-03T11:22:48.583Z,0.86
2022-12-03T11:24:18.678Z,0.89
2022-12-03T11:25:58.467Z,0.95
2022-12-03T11:27:28.883Z,1.03
2022-12-03T11:28:53.355Z,1.02
2022-12-03T11:30:02.642Z,1.03
2022-12-03T11:31:11.913Z,0.89
2022-12-03T11:33:09.252Z,0.76
2022-12-03T11:34:52.830Z,0.74
2022-12-03T11:36:16.925Z,0.75
2022-12-03T11:37:23.760Z,0.78
2022-12-03T11:38:54.022Z,0.64
2022-12-03T11:40:33.507Z,0.78
2022-12-03T11:41:41.099Z,0.73
2022-12-03T11:42:44.141Z,0.75
2022-12-03T11:44:29.650Z,0.69
2022-12-03T11:45:38.140Z,0.76
2022-12-03T11:46:43.926Z,0.66
2022-12-03T11:47:51.083Z,0.70
2022-12-03T11:48:55.292Z,0.75
2022-12-03T11:50:00.393Z,0.78
2022-12-03T11:51:05.341Z,0.79
2022-12-03T11:52:33.762Z,0.67
2022-12-03T11:53:38.912Z,0.63
2022-12-03T11:54:41.158Z,0.63
2022-12-03T11:55:49.048Z,0.54
2022-12-03T11:56:52.219Z,0.58
2022-12-03T11:58:01.383Z,0.65
2022-12-03T11:59:15.087Z,0.53
2022-12-03T12:00:24.469Z,0.59
2022-12-03T12:01:38.250Z,0.53
2022-12-03T12:02:43.945Z,0.61
2022-12-03T12:03:51.207Z,0.64
2022-12-03T12:04:53.755Z,0.59
2022-12-03T12:06:06.998Z,0.43
2022-12-03T12:07:09.208Z,0.53
2022-12-03T12:08:22.418Z,0.48
2022-12-03T12:09:49.688Z,0.63
2022-12-03T12:10:54.677Z,0.69
2022-12-03T12:12:19.822Z,0.72
2022-12-03T12:13:55.735Z,0.66
2022-12-03T12:14:59.194Z,0.77
2022-12-03T12:16:05.345Z,0.81
2022-12-03T12:17:37.246Z,0.79
2022-12-03T12:18:44.095Z,0.72
2022-12-03T12:19:54.384Z,0.66
2022-12-03T12:21:16.972Z,0.62
2022-12-03T12:22:32.162Z,0.50
2022-12-03T12:23:37.071Z,0.51
2022-12-03T12:24:51.702Z,0.54
2022-12-03T12:25:56.946Z,0.57
2022-12-03T12:27:01.233Z,0.59
2022-12-03T12:28:06.318Z,0.60
2022-12-03T12:29:08.632Z,0.53
2022-12-03T12:30:18.179Z,0.48
2022-12-03T12:31:20.637Z,0.58
2022-12-03T12:32:31.921Z,0.57
2022-12-03T12:33:36.855Z,0.54
2022-12-03T12:34:40.341Z,0.54
2022-12-03T12:35:48.127Z,0.56
2022-12-03T12:36:57.189Z,0.64
2022-12-03T12:38:13.746Z,0.59
2022-12-03T12:39:19.077Z,0.65
2022-12-03T12:40:27.067Z,0.66
2022-12-03T12:41:29.312Z,0.69
2022-12-03T12:42:36.957Z,0.59
2022-12-03T12:43:42.447Z,0.53
2022-12-03T12:44:45.070Z,0.50
2022-12-03T12:45:50.162Z,0.54
2022-12-03T12:46:54.116Z,0.47
2022-12-03T12:48:08.410Z,0.48
2022-12-03T12:49:14.519Z,0.42
2022-12-03T12:50:19.151Z,0.55
2022-12-03T12:51:24.130Z,0.40
2022-12-03T12:52:27.727Z,0.28
2022-12-03T12:53:35.666Z,0.34
2022-12-03T12:54:41.002Z,0.36
2022-12-03T12:55:45.887Z,0.30
2022-12-03T12:56:53.067Z,0.32
2022-12-03T12:58:11.491Z,0.29
2022-12-03T12:59:19.375Z,0.34
2022-12-03T13:00:24.009Z,0.25
2022-12-03T13:01:31.528Z,0.19
2022-12-03T13:02:44.504Z,0.19
2022-12-03T13:03:53.008Z,0.16
2022-12-03T13:04:55.217Z,0.22
2022-12-03T13:06:00.604Z,0.24
2022-12-03T13:07:02.858Z,0.26
2022-12-03T13:08:21.773Z,0.21
2022-12-03T13:09:28.467Z,0.32
2022-12-03T13:10:44.242Z,0.21
2022-12-03T13:11:54.757Z,0.20
2022-12-03T13:12:59.832Z,0.28
2022-12-03T13:14:08.566Z,0.35
2022-12-03T13:15:34.926Z,0.40
2022-12-03T13:16:39.905Z,0.33
2022-12-03T13:17:42.264Z,0.21
2022-12-03T13:18:50.017Z,0.21
2022-12-03T13:20:01.972Z,0.25
2022-12-03T13:21:27.478Z,0.19
2022-12-03T13:22:30.125Z,0.19
2022-12-03T13:23:37.309Z,0.19
2022-12-03T13:24:44.120Z,0.20
2022-12-03T13:26:07.165Z,0.08
2022-12-03T13:27:29.686Z,0.05
2022-12-03T13:28:33.919Z,-0.06
2022-12-03T13:29:38.914Z,-0.07
2022-12-03T13:30:41.276Z,-0.13
2022-12-03T13:31:55.586Z,-0.09
2022-12-03T13:32:58.374Z,-0.11
2022-12-03T13:34:05.125Z,-0.29
2022-12-03T13:35:17.601Z,-0.31
2022-12-03T13:36:24.549Z,-0.33
2022-12-03T13:37:28.529Z,-0.37
2022-12-03T13:38:33.310Z,-0.38
2022-12-03T13:39:41.126Z,-0.36
2022-12-03T13:40:46.239Z,-0.26
2022-12-03T13:42:18.120Z,-0.34
2022-12-03T13:43:23.051Z,-0.30
2022-12-03T13:44:27.520Z,-0.20
2022-12-03T13:45:39.936Z,-0.15
2022-12-03T13:46:42.563Z,-0.12
2022-12-03T13:47:49.517Z,-0.18
2022-12-03T13:48:57.452Z,-0.14
2022-12-03T13:50:13.931Z,-0.13
2022-12-03T13:51:24.355Z,-0.11
2022-12-03T13:52:29.696Z,-0.14
2022-12-03T13:53:36.959Z,-0.15
2022-12-03T13:54:42.990Z,-0.31
2022-12-03T13:55:48.453Z,-0.31
2022-12-03T13:57:00.409Z,-0.27
2022-12-03T13:58:06.681Z,-0.30
2022-12-03T13:59:16.020Z,-0.34
2022-12-03T14:00:20.536Z,-0.39
2022-12-03T14:01:29.550Z,-0.44
2022-12-03T14:02:52.579Z,-0.48
2022-12-03T14:04:02.430Z,-0.48
2022-12-03T14:05:11.195Z,-0.44
2022-12-03T14:06:17.415Z,-0.47
2022-12-03T14:07:22.273Z,-0.44
2022-12-03T14:08:27.062Z,-0.46
2022-12-03T14:09:29.179Z,-0.45
2022-12-03T14:10:33.914Z,-0.43
2022-12-03T14:11:51.369Z,-0.37
2022-12-03T14:12:59.128Z,-0.33
2022-12-03T14:14:04.178Z,-0.37
2022-12-03T14:15:10.924Z,-0.32
2022-12-03T14:16:13.178Z,-0.36
2022-12-03T14:17:18.040Z,-0.30
2022-12-03T14:18:22.755Z,-0.34
2022-12-03T14:19:24.933Z,-0.30
2022-12-03T14:20:29.737Z,-0.33
2022-12-03T14:21:31.939Z,-0.41
2022-12-03T14:22:38.154Z,-0.44
2022-12-03T14:23:40.355Z,-0.56
2022-12-03T14:24:45.205Z,-0.50
2022-12-03T14:25:47.353Z,-0.52
2022-12-03T14:26:52.124Z,-0.53
2022-12-03T14:28:04.018Z,-0.54
2022-12-03T14:29:09.156Z,-0.52
2022-12-03T14:30:15.234Z,-0.56
2022-12-03T14:31:17.397Z,-0.51
2022-12-03T14:32:22.351Z,-0.50
2022-12-03T14:33:27.191Z,-0.48
2022-12-03T14:34:29.360Z,-0.46
2022-12-03T14:35:34.180Z,-0.50
2022-12-03T14:36:39.006Z,-0.57
2022-12-03T14:37:41.178Z,-0.53
2022-12-03T14:38:45.953Z,-0.64
2022-12-03T14:39:50.695Z,-0.59
2022-12-03T14:40:52.879Z,-0.64
2022-12-03T14:42:10.293Z,-0.76
2022-12-03T14:43:17.763Z,-0.78
2022-12-03T14:44:22.027Z,-0.70
2022-12-03T14:45:28.756Z,-0.77
2022-12-03T14:46:31.509Z,-0.80
2022-12-03T14:47:36.342Z,-0.77
2022-12-03T14:48:38.537Z,-0.84
2022-12-03T14:49:43.419Z,-0.77
2022-12-03T14:50:45.711Z,-0.78
2022-12-03T14:51:50.552Z,-0.83
2022-12-03T14:52:55.315Z,-0.78
2022-12-03T14:53:57.431Z,-0.77
2022-12-03T14:55:02.464Z,-0.79
2022-12-03T14:56:04.837Z,-0.85
2022-12-03T14:57:09.593Z,-0.85
2022-12-03T14:58:17.048Z,-0.83
2022-12-03T14:59:24.371Z,-0.85
2022-12-03T15:00:32.082Z,-0.90
2022-12-03T15:01:34.338Z,-0.89
2022-12-03T15:02:39.271Z,-0.87
2022-12-03T15:03:41.546Z,-0.86
2022-12-03T15:04:46.401Z,-0.82
2022-12-03T15:05:49.237Z,-0.85
2022-12-03T15:06:54.139Z,-0.84
2022-12-03T15:07:59.140Z,-0.92
2022-12-03T15:09:01.553Z,-0.95
2022-12-03T15:10:07.093Z,-0.93
2022-12-03T15:11:09.793Z,-0.87
2022-12-03T15:12:14.678Z,-0.87
2022-12-03T15:13:19.457Z,-0.93
2022-12-03T15:14:24.272Z,-0.96
2022-12-03T15:15:26.611Z,-0.95
2022-12-03T15:16:31.443Z,-0.94
2022-12-03T15:17:33.805Z,-0.91
2022-12-03T15:18:38.636Z,-0.93
2022-12-03T15:19:43.427Z,-0.91
2022-12-03T15:20:49.300Z,-0.81
2022-12-03T15:21:54.006Z,-0.85
2022-12-03T15:22:58.776Z,-0.85
2022-12-03T15:24:01.079Z,-0.85
2022-12-03T15:25:07.825Z,-0.90
2022-12-03T15:26:09.986Z,-0.88
2022-12-03T15:27:14.755Z,-0.92
2022-12-03T15:28:19.496Z,-0.88
2022-12-03T15:29:27.032Z,-0.85
2022-12-03T15:30:29.325Z,-0.87
2022-12-03T15:31:34.404Z,-0.90
2022-12-03T15:32:39.320Z,-0.91
2022-12-03T15:33:44.264Z,-0.91
2022-12-03T15:34:51.449Z,-0.88
2022-12-03T15:35:56.258Z,-0.84
2022-12-03T15:37:03.130Z,-0.86
2022-12-03T15:38:05.316Z,-0.83
2022-12-03T15:39:10.075Z,-0.81
2022-12-03T15:40:13.402Z,-0.76
2022-12-03T15:41:24.943Z,-0.79
2022-12-03T15:42:28.237Z,-0.80
2022-12-03T15:43:35.654Z,-0.85
2022-12-03T15:44:40.987Z,-0.96
2022-12-03T15:45:43.249Z,-0.98
2022-12-03T15:46:48.135Z,-0.97
2022-12-03T15:47:52.899Z,-0.90
2022-12-03T15:48:58.461Z,-0.95
2022-12-03T15:50:00.862Z,-1.00
2022-12-03T15:51:05.724Z,-0.93
2022-12-03T15:52:10.725Z,-0.91
2022-12-03T15:53:15.564Z,-0.94
2022-12-03T15:54:17.691Z,-0.95
2022-12-03T15:55:22.634Z,-0.96
2022-12-03T15:56:27.502Z,-0.98
2022-12-03T15:57:31.319Z,-0.93
2022-12-03T15:58:38.718Z,-0.89
2022-12-03T15:59:45.844Z,-0.91
2022-12-03T16:00:50.623Z,-0.91
2022-12-03T16:01:55.477Z,-0.99
2022-12-03T16:03:00.262Z,-0.92
2022-12-03T16:04:02.563Z,-0.88
2022-12-03T16:05:10.170Z,-0.85
2022-12-03T16:06:15.887Z,-0.95
2022-12-03T16:07:18.018Z,-1.01
2022-12-03T16:08:22.852Z,-1.03
2022-12-03T16:09:28.108Z,-1.00
2022-12-03T16:10:33.056Z,-0.92
2022-12-03T16:11:37.857Z,-0.94
2022-12-03T16:12:40.515Z,-0.96
2022-12-03T16:13:48.051Z,-0.99
2022-12-03T16:14:50.287Z,-0.93
2022-12-03T16:15:55.159Z,-0.89
2022-12-03T16:16:59.149Z,-0.94
2022-12-03T16:18:06.579Z,-0.94
2022-12-03T16:19:11.369Z,-1.01
2022-12-03T16:20:16.207Z,-0.99
2022-12-03T16:21:23.374Z,-1.05
2022-12-03T16:22:31.153Z,-1.03
2022-12-03T16:23:33.317Z,-1.08
2022-12-03T16:24:38.031Z,-1.08
2022-12-03T16:25:43.106Z,-1.04
2022-12-03T16:26:45.306Z,-1.07
2022-12-03T16:27:50.135Z,-1.00
2022-12-03T16:28:59.429Z,-1.03
2022-12-03T16:30:04.259Z,-1.06
2022-12-03T16:31:06.622Z,-1.04
2022-12-03T16:32:11.491Z,-1.04
2022-12-03T16:33:13.648Z,-1.05
2022-12-03T16:34:18.441Z,-1.01
2022-12-03T16:35:20.635Z,-1.00
2022-12-03T16:36:25.388Z,-1.00
2022-12-03T16:37:27.614Z,-1.02
2022-12-03T16:38:33.955Z,-1.07
2022-12-03T16:39:39.328Z,-1.07
2022-12-03T16:40:44.077Z,-1.10
2022-12-03T16:41:46.219Z,-1.14
2022-12-03T16:42:50.980Z,-1.16
2022-12-03T16:43:55.861Z,-1.15
2022-12-03T16:45:13.059Z,-1.15
2022-12-03T16:46:28.604Z,-1.15
2022-12-03T16:47:34.559Z,-1.16
2022-12-03T16:48:39.470Z,-1.14
2022-12-03T16:49:41.960Z,-1.18
2022-12-03T16:50:46.769Z,-1.15
2022-12-03T16:51:51.745Z,-1.17
2022-12-03T16:52:53.906Z,-1.15
2022-12-03T16:53:58.716Z,-1.17
2022-12-03T16:55:01.044Z,-1.15
2022-12-03T16:56:06.031Z,-1.09
2022-12-03T16:57:08.229Z,-1.14
2022-12-03T16:58:13.097Z,-1.14
2022-12-03T16:59:20.700Z,-1.11
2022-12-03T17:00:26.421Z,-1.10
2022-12-03T17:01:28.589Z,-1.10
2022-12-03T17:02:33.501Z,-1.11
2022-12-03T17:03:38.375Z,-1.11
2022-12-03T17:04:40.770Z,-1.08
2022-12-03T17:05:45.503Z,-1.04
2022-12-03T17:06:50.356Z,-0.95
2022-12-03T17:07:52.545Z,-0.97
2022-12-03T17:08:57.402Z,-0.94
2022-12-03T17:10:02.377Z,-0.89
2022-12-03T17:11:07.321Z,-0.98
2022-12-03T17:12:09.536Z,-1.01
2022-12-03T17:13:15.020Z,-0.97
2022-12-03T17:14:19.793Z,-1.00
2022-12-03T17:15:24.540Z,-0.99
2022-12-03T17:16:29.450Z,-0.97
2022-12-03T17:17:34.373Z,-0.98
2022-12-03T17:18:39.209Z,-0.99
2022-12-03T17:19:44.047Z,-1.00
2022-12-03T17:20:48.809Z,-0.97
2022-12-03T17:21:51.006Z,-0.99
2022-12-03T17:22:55.793Z,-0.97
2022-12-03T17:24:00.567Z,-0.97
2022-12-03T17:25:02.672Z,-1.01
2022-12-03T17:26:07.788Z,-1.03
2022-12-03T17:27:11.737Z,-1.02
2022-12-03T17:28:19.374Z,-1.13
2022-12-03T17:29:26.825Z,-1.09
2022-12-03T17:30:29.064Z,-1.10
2022-12-03T17:31:39.943Z,-1.04
2022-12-03T17:32:47.056Z,-1.02
2022-12-03T17:33:49.179Z,-1.08
2022-12-03T17:34:53.966Z,-1.10
2022-12-03T17:35:56.114Z,-1.08
2022-12-03T17:37:00.819Z,-1.14
2022-12-03T17:38:02.961Z,-1.16
2022-12-03T17:39:07.754Z,-1.18
2022-12-03T17:40:12.311Z,-1.10
2022-12-03T17:41:17.416Z,-1.07
2022-12-03T17:42:19.515Z,-1.08
2022-12-03T17:43:24.284Z,-1.09
2022-12-03T17:44:31.654Z,-1.13
2022-12-03T17:45:33.825Z,-1.15
2022-12-03T17:46:38.709Z,-1.19
2022-12-03T17:47:43.938Z,-1.22
2022-12-03T17:48:46.207Z,-1.19
2022-12-03T17:49:54.100Z,-1.16
2022-12-03T17:50:58.202Z,-1.19
2022-12-03T17:52:03.398Z,-1.16
2022-12-03T17:53:10.504Z,-1.16
2022-12-03T17:54:15.254Z,-1.13
2022-12-03T17:55:29.720Z,-1.11
2022-12-03T17:56:39.426Z,-1.11
2022-12-03T17:57:44.303Z,-1.22
2022-12-03T17:58:46.537Z,-1.16
2022-12-03T17:59:54.162Z,-1.21
2022-12-03T18:01:02.085Z,-1.21
2022-12-03T18:02:07.857Z,-1.20
2022-12-03T18:03:12.892Z,-1.16
2022-12-03T18:04:15.271Z,-1.14
2022-12-03T18:05:20.230Z,-1.14
2022-12-03T18:06:26.463Z,-1.10
2022-12-03T18:07:28.649Z,-1.21
2022-12-03T18:08:33.670Z,-1.20
2022-12-03T18:09:35.840Z,-1.22
2022-12-03T18:10:40.596Z,-1.23
2022-12-03T18:11:45.618Z,-1.20
2022-12-03T18:12:47.800Z,-1.19
2022-12-03T18:13:52.679Z,-1.18
2022-12-03T18:15:02.209Z,-1.14
2022-12-03T18:16:07.755Z,-1.17
2022-12-03T18:17:09.987Z,-1.20
2022-12-03T18:18:15.079Z,-1.19
2022-12-03T18:19:19.935Z,-1.18
2022-12-03T18:20:22.257Z,-1.23
2022-12-03T18:21:27.255Z,-1.20
2022-12-03T18:22:32.167Z,-1.26
2022-12-03T18:23:37.491Z,-1.20
2022-12-03T18:24:40.091Z,-1.17
2022-12-03T18:25:45.445Z,-1.17
2022-12-03T18:26:50.412Z,-1.16
2022-12-03T18:27:55.364Z,-1.18
2022-12-03T18:29:00.425Z,-1.19
2022-12-03T18:30:09.823Z,-1.23
2022-12-03T18:31:17.689Z,-1.25
2022-12-03T18:32:29.006Z,-1.24
2022-12-03T18:33:34.450Z,-1.30
2022-12-03T18:34:36.762Z,-1.36
2022-12-03T18:35:41.835Z,-1.29
2022-12-03T18:36:49.343Z,-1.28
2022-12-03T18:37:54.839Z,-1.37
2022-12-03T18:39:01.606Z,-1.33
2022-12-03T18:40:12.692Z,-1.32
2022-12-03T18:41:18.270Z,-1.30
2022-12-03T18:42:25.816Z,-1.44
2022-12-03T18:43:28.490Z,-1.41
2022-12-03T18:44:34.068Z,-1.40
2022-12-03T18:45:41.577Z,-1.37
2022-12-03T18:46:55.164Z,-1.41
2022-12-03T18:48:00.378Z,-1.34
2022-12-03T18:49:05.359Z,-1.37
2022-12-03T18:50:16.667Z,-1.31
2022-12-03T18:51:23.570Z,-1.36
2022-12-03T18:52:25.865Z,-1.45
2022-12-03T18:53:30.672Z,-1.43
2022-12-03T18:54:35.629Z,-1.44
2022-12-03T18:55:37.848Z,-1.44
2022-12-03T18:56:43.412Z,-1.39
2022-12-03T18:57:45.966Z,-1.41
2022-12-03T18:58:50.724Z,-1.41
2022-12-03T18:59:53.387Z,-1.39
2022-12-03T19:01:01.470Z,-1.40
2022-12-03T19:02:06.583Z,-1.40
2022-12-03T19:03:11.821Z,-1.40
2022-12-03T19:04:14.158Z,-1.41
2022-12-03T19:05:19.189Z,-1.37
2022-12-03T19:06:22.129Z,-1.35
2022-12-03T19:07:27.057Z,-1.33
2022-12-03T19:08:33.879Z,-1.38
2022-12-03T19:09:36.121Z,-1.38
2022-12-03T19:10:40.919Z,-1.44
2022-12-03T19:11:46.063Z,-1.42
2022-12-03T19:12:51.151Z,-1.43
2022-12-03T19:13:57.432Z,-1.45
2022-12-03T19:14:59.691Z,-1.44
2022-12-03T19:16:09.184Z,-1.40
2022-12-03T19:17:14.075Z,-1.36
2022-12-03T19:18:16.436Z,-1.40
2022-12-03T19:19:21.215Z,-1.43
2022-12-03T19:20:26.369Z,-1.42
2022-12-03T19:21:33.861Z,-1.46
2022-12-03T19:22:39.546Z,-1.46
2022-12-03T19:24:09.875Z,-1.44
2022-12-03T19:25:10.757Z,-1.45
2022-12-03T19:26:18.179Z,-1.41
2022-12-03T19:27:20.480Z,-1.43
2022-12-03T19:28:25.409Z,-1.36
2022-12-03T19:29:27.740Z,-1.40
2022-12-03T19:30:32.629Z,-1.37
2022-12-03T19:31:40.339Z,-1.33
2022-12-03T19:32:46.123Z,-1.35
2022-12-03T19:33:52.028Z,-1.29
2022-12-03T19:34:54.466Z,-1.21
2022-12-03T19:36:00.490Z,-1.25
2022-12-03T19:37:05.361Z,-1.25
2022-12-03T19:38:08.523Z,-1.27
2022-12-03T19:39:17.143Z,-1.26
2022-12-03T19:40:19.630Z,-1.28
2022-12-03T19:41:26.871Z,-1.27
2022-12-03T19:42:31.354Z,-1.23
2022-12-03T19:43:37.272Z,-1.21
2022-12-03T19:44:39.648Z,-1.23
2022-12-03T19:45:44.703Z,-1.26
2022-12-03T19:46:53.129Z,-1.25
2022-12-03T19:47:55.423Z,-1.24
2022-12-03T19:49:01.970Z,-1.21
2022-12-03T19:50:08.665Z,-1.22
2022-12-03T19:51:33.594Z,-1.27
2022-12-03T19:52:39.482Z,-1.25
2022-12-03T19:53:42.280Z,-1.24
2022-12-03T19:54:47.434Z,-1.26
2022-12-03T19:55:49.770Z,-1.28
2022-12-03T19:56:54.711Z,-1.27
2022-12-03T19:57:59.553Z,-1.20
2022-12-03T19:59:05.199Z,-1.14
2022-12-03T20:00:09.366Z,-1.11
2022-12-03T20:01:17.100Z,-1.20
2022-12-03T20:02:22.232Z,-1.22
2022-12-03T20:03:27.129Z,-1.26
2022-12-03T20:04:29.324Z,-1.23
2022-12-03T20:05:38.610Z,-1.27
2022-12-03T20:06:40.941Z,-1.20
2022-12-03T20:07:45.778Z,-1.22
2022-12-03T20:08:50.956Z,-1.22
2022-12-03T20:09:56.115Z,-1.21
2022-12-03T20:11:08.421Z,-1.21
2022-12-03T20:12:13.292Z,-1.20
2022-12-03T20:13:18.130Z,-1.18
2022-12-03T20:14:21.099Z,-1.20
2022-12-03T20:15:26.095Z,-1.15
2022-12-03T20:16:34.039Z,-1.16
2022-12-03T20:17:41.556Z,-1.13
2022-12-03T20:18:45.755Z,-1.20
2022-12-03T20:19:51.740Z,-1.18
2022-12-03T20:20:57.167Z,-1.23
2022-12-03T20:22:03.117Z,-1.24
2022-12-03T20:23:05.557Z,-1.20
2022-12-03T20:24:13.165Z,-1.17
2022-12-03T20:25:18.111Z,-1.13
2022-12-03T20:26:22.343Z,-1.17
2022-12-03T20:27:27.338Z,-1.22
2022-12-03T20:28:35.240Z,-1.21
2022-12-03T20:29:40.354Z,-1.22
2022-12-03T20:30:44.826Z,-1.21
2022-12-03T20:31:50.428Z,-1.25
2022-12-03T20:32:58.135Z,-1.25
2022-12-03T20:34:05.253Z,-1.24
2022-12-03T20:35:13.132Z,-1.16
2022-12-03T20:36:17.455Z,-1.21
2022-12-03T20:37:22.375Z,-1.18
2022-12-03T20:38:28.118Z,-1.18
2022-12-03T20:39:33.129Z,-1.13
2022-12-03T20:40:36.407Z,-1.14
2022-12-03T20:41:41.475Z,-1.14
2022-12-03T20:42:50.342Z,-1.19
2022-12-03T20:43:53.456Z,-1.17
2022-12-03T20:44:58.610Z,-1.19
2022-12-03T20:46:07.904Z,-1.16
2022-12-03T20:47:13.017Z,-1.11
2022-12-03T20:48:17.877Z,-1.06
2022-12-03T20:49:23.216Z,-1.10
2022-12-03T20:50:28.091Z,-1.14
2022-12-03T20:51:31.297Z,-1.14
2022-12-03T20:52:36.161Z,-1.17
2022-12-03T20:53:41.437Z,-1.14
2022-12-03T20:54:46.748Z,-1.11
2022-12-03T20:55:55.655Z,-1.06
2022-12-03T20:57:03.228Z,-1.10
2022-12-03T20:58:05.576Z,-1.15
2022-12-03T20:59:13.649Z,-1.14
2022-12-03T21:00:16.760Z,-1.16
2022-12-03T21:01:24.219Z,-1.19
2022-12-03T21:02:26.876Z,-1.20
2022-12-03T21:03:36.805Z,-1.20
2022-12-03T21:04:41.989Z,-1.19
2022-12-03T21:05:44.240Z,-1.16
2022-12-03T21:06:51.984Z,-1.19
2022-12-03T21:07:54.798Z,-1.11
2022-12-03T21:09:01.293Z,-1.08
2022-12-03T21:10:06.656Z,-1.07
2022-12-03T21:11:10.379Z,-1.10
2022-12-03T21:12:15.493Z,-1.15
2022-12-03T21:13:18.471Z,-1.14
2022-12-03T21:14:23.412Z,-1.13
2022-12-03T21:15:25.840Z,-1.17
2022-12-03T21:16:59.687Z,-1.13
2022-12-03T21:18:00.162Z,-1.14
2022-12-03T21:19:07.960Z,-1.21
2022-12-03T21:20:10.872Z,-1.18
2022-12-03T21:21:16.950Z,-1.22
2022-12-03T21:22:21.923Z,-1.22
2022-12-03T21:23:24.125Z,-1.23
2022-12-03T21:24:30.070Z,-1.21
2022-12-03T21:25:32.656Z,-1.22
2022-12-03T21:26:37.564Z,-1.22
2022-12-03T21:27:39.928Z,-1.23
2022-12-03T21:28:47.357Z,-1.26
2022-12-03T21:29:52.956Z,-1.31
2022-12-03T21:30:59.643Z,-1.27
2022-12-03T21:32:04.452Z,-1.29
2022-12-03T21:33:07.373Z,-1.27
2022-12-03T21:34:15.152Z,-1.25
2022-12-03T21:35:18.586Z,-1.28
2022-12-03T21:36:23.608Z,-1.32
2022-12-03T21:37:25.959Z,-1.32
2022-12-03T21:38:32.869Z,-1.33
2022-12-03T21:39:37.938Z,-1.33
2022-12-03T21:40:40.276Z,-1.30
2022-12-03T21:42:33.354Z,-1.30
2022-12-03T21:43:10.030Z,-1.30
2022-12-03T21:44:14.805Z,-1.30
2022-12-03T21:45:17.143Z,-1.29
2022-12-03T21:47:10.255Z,-1.23
2022-12-03T21:47:50.574Z,-1.24
2022-12-03T21:48:55.489Z,-1.21
2022-12-03T21:50:00.329Z,-1.22
2022-12-03T21:51:07.032Z,-1.17
2022-12-03T21:52:12.173Z,-1.18
2022-12-03T21:53:14.400Z,-1.24
2022-12-03T21:54:20.531Z,-1.27
2022-12-03T21:55:25.380Z,-1.20
2022-12-03T21:56:27.745Z,-1.20
2022-12-03T21:57:32.588Z,-1.21
2022-12-03T21:58:35.224Z,-1.22
2022-12-03T21:59:40.066Z,-1.21
2022-12-03T22:00:42.235Z,-1.16
2022-12-03T22:01:47.571Z,-1.22
2022-12-03T22:02:50.158Z,-1.21
2022-12-03T22:03:55.357Z,-1.24
2022-12-03T22:05:00.164Z,-1.22
2022-12-03T22:06:05.242Z,-1.21
2022-12-03T22:07:07.555Z,-1.27
2022-12-03T22:08:13.914Z,-1.30
2022-12-03T22:09:24.833Z,-1.22
2022-12-03T22:10:28.735Z,-1.25
2022-12-03T22:11:33.569Z,-1.24
2022-12-03T22:12:40.882Z,-1.22
2022-12-03T22:13:46.245Z,-1.21
2022-12-03T22:14:48.604Z,-1.23
2022-12-03T22:15:53.713Z,-1.22
2022-12-03T22:16:56.315Z,-1.23
2022-12-03T22:18:01.115Z,-1.22
2022-12-03T22:19:06.417Z,-1.23
2022-12-03T22:20:12.560Z,-1.14
2022-12-03T22:21:20.431Z,-1.19
2022-12-03T22:22:22.694Z,-1.20
2022-12-03T22:23:27.509Z,-1.18
2022-12-03T22:24:32.380Z,-1.15
2022-12-03T22:25:34.541Z,-1.19
2022-12-03T22:26:39.286Z,-1.18
2022-12-03T22:27:44.055Z,-1.18
2022-12-03T22:28:48.443Z,-1.18
2022-12-03T22:29:53.660Z,-1.10
2022-12-03T22:30:58.798Z,-1.08
2022-12-03T22:32:03.631Z,-1.11
2022-12-03T22:33:05.772Z,-1.08
2022-12-03T22:34:10.606Z,-1.01
2022-12-03T22:35:20.319Z,-1.05
2022-12-03T22:36:23.035Z,-1.13
2022-12-03T22:37:28.418Z,-1.06
2022-12-03T22:38:34.933Z,-1.05
2022-12-03T22:39:37.158Z,-1.07
2022-12-03T22:40:42.766Z,-1.05
2022-12-03T22:41:44.933Z,-1.05
2022-12-03T22:42:51.088Z,-1.06
2022-12-03T22:43:53.525Z,-1.05
2022-12-03T22:44:58.345Z,-1.04
2022-12-03T22:46:03.177Z,-1.10
2022-12-03T22:47:08.254Z,-1.09
2022-12-03T22:48:10.439Z,-1.09
2022-12-03T22:49:16.421Z,-1.04
2022-12-03T22:50:21.289Z,-1.09
2022-12-03T22:51:28.145Z,-1.13
2022-12-03T22:52:30.742Z,-1.10
2022-12-03T22:53:35.645Z,-1.01
2022-12-03T22:54:40.391Z,-1.06
2022-12-03T22:55:43.017Z,-1.10
2022-12-03T22:56:47.776Z,-1.13
2022-12-03T22:57:49.986Z,-1.11
2022-12-03T22:58:55.128Z,-1.04